This is the latest recevied weather packets stored in our database for station/object VK4SSH. If no packets are shown the sender has not sent any weather packets the latest 1 day(s).
| Time | Temp. | Humidity | Pressure | Rain* | Wind** | Luminosity | Snow |
|---|---|---|---|---|---|---|---|
| 1778102119 | 17.78° C | 99% | - | 0 mm | - | - | - |
| 1778099719 | 17.22° C | 99% | - | 0 mm | - | - | - |
| 1778099119 | 17.78° C | 99% | - | 0 mm | - | - | - |
| 1778098519 | 17.22° C | 99% | - | 0 mm | - | - | - |
| 1778097919 | 17.22° C | 99% | - | 0 mm | - | - | - |
| 1778097319 | 17.22° C | 99% | - | 0 mm | - | - | - |
| 1778096119 | 17.22° C | 99% | - | 0 mm | - | - | - |
| 1778088319 | 18.33° C | 97% | - | 0 mm | - | - | - |
| 1778087119 | 18.33° C | 97% | - | 0 mm | - | - | - |
| 1778062518 | 20.56° C | 89% | - | 0 mm | - | - | - |
| 1778061918 | 20.56° C | 89% | - | 0 mm | - | - | - |
| 1778058918 | 20.56° C | 89% | - | 0 mm | - | - | - |
| 1778049918 | 22.78° C | 84% | - | 0 mm | - | - | - |
| 1778048718 | 22.78° C | 83% | - | 0 mm | - | - | - |
| 1778048118 | 22.78° C | 83% | - | 0 mm | - | - | - |
| 1778046318 | 23.33° C | 83% | - | 0 mm | - | - | - |
| 1778045718 | 23.33° C | 83% | - | 0 mm | - | - | - |
| 1778044518 | 23.33° C | 85% | - | 0 mm | - | - | - |
| 1778043918 | 23.33° C | 85% | - | 0 mm | - | - | - |
| 1778043318 | 23.33° C | 84% | - | 0 mm | - | - | - |
| 1778042718 | 23.33° C | 85% | - | 0 mm | - | - | - |
| 1778042130 | 23.89° C | 85% | - | 0 mm | - | - | - |
| 1778041530 | 23.89° C | 83% | - | 0 mm | - | - | - |
| 1778040930 | 23.33° C | 84% | - | 0 mm | - | - | - |
| 1778040330 | 23.33° C | 86% | - | 0 mm | - | - | - |
* Rain latest hour (hover to see other rain measurements)
** Current wind speed in m/s (hover to see current wind gust speed)